Time;durP1;ratioP1;P1;durP2;ratioP2;P2;SDS_P1;SDS_P2;PMS_P1;PMS_P2;Temp;Humidity;BMP_temperature;BMP_pressure;BME280_temperature;BME280_humidity;BME280_pressure;Samples;Min_cycle;Max_cycle;Signal;HPM_P1;HPM_P2
2023/03/23 00:01:26;;;;;;;136.95;17.45;;;;;;;;;;4968025;28;20055;-67
2023/03/23 00:03:53;;;;;;;138.57;16.38;;;;;;;;;;4971751;28;20058;-66
2023/03/23 00:06:20;;;;;;;144.35;17.55;;;;;;;;;;4954890;28;20499;-67
2023/03/23 00:08:59;;;;;;;160.68;17.38;;;;;;;;;;4970747;28;20069;-67
2023/03/23 00:11:28;;;;;;;156.02;18.20;;;;;;;;;;4973208;28;20514;-60
2023/03/23 00:14:02;;;;;;;127.20;16.05;;;;;;;;;;4974586;28;20051;-61
2023/03/23 00:16:39;;;;;;;134.65;18.70;;;;;;;;;;4990001;28;20208;-59
2023/03/23 00:19:13;;;;;;;108.93;15.90;;;;;;;;;;4990308;28;20509;-59
2023/03/23 00:21:41;;;;;;;152.02;19.02;;;;;;;;;;4993250;28;20051;-59
2023/03/23 00:24:09;;;;;;;123.88;16.98;;;;;;;;;;4989642;28;20643;-59
2023/03/23 00:26:43;;;;;;;119.53;16.33;;;;;;;;;;4984885;28;20057;-58
2023/03/23 00:29:16;;;;;;;123.45;14.98;;;;;;;;;;4989515;28;20061;-59
2023/03/23 00:31:49;;;;;;;103.80;14.60;;;;;;;;;;4990626;28;20125;-60
2023/03/23 00:34:19;;;;;;;122.28;17.77;;;;;;;;;;4990746;28;20050;-60
2023/03/23 00:36:58;;;;;;;119.40;17.45;;;;;;;;;;4985447;28;20057;-61
2023/03/23 00:39:26;;;;;;;116.15;16.50;;;;;;;;;;4987221;28;20050;-60
2023/03/23 00:42:02;;;;;;;113.82;17.42;;;;;;;;;;4991173;28;20050;-60
2023/03/23 00:44:30;;;;;;;118.05;18.40;;;;;;;;;;4989850;28;20054;-60
2023/03/23 00:47:00;;;;;;;112.47;16.00;;;;;;;;;;4988796;28;20096;-60
2023/03/23 00:49:34;;;;;;;122.28;18.75;;;;;;;;;;4990586;28;20054;-60
2023/03/23 00:52:01;;;;;;;95.07;13.98;;;;;;;;;;4987573;28;20105;-60
2023/03/23 00:54:34;;;;;;;128.40;18.80;;;;;;;;;;4989832;28;20086;-60
2023/03/23 00:57:01;;;;;;;105.75;17.42;;;;;;;;;;4988155;28;21015;-60
2023/03/23 00:59:27;;;;;;;112.57;18.20;;;;;;;;;;4989376;28;20054;-60
2023/03/23 01:02:00;;;;;;;86.25;16.23;;;;;;;;;;4989548;28;20047;-60
2023/03/23 01:04:28;;;;;;;120.95;19.00;;;;;;;;;;4988435;28;20505;-60
2023/03/23 01:07:00;;;;;;;96.80;15.48;;;;;;;;;;4986346;28;20066;-61
2023/03/23 01:09:27;;;;;;;124.90;16.92;;;;;;;;;;4985553;28;20052;-60
2023/03/23 01:11:55;;;;;;;118.32;16.98;;;;;;;;;;4991027;28;20061;-60
2023/03/23 01:14:33;;;;;;;119.82;17.95;;;;;;;;;;4989302;28;20050;-60
2023/03/23 01:17:06;;;;;;;104.22;17.02;;;;;;;;;;4990002;28;20434;-60
2023/03/23 01:19:40;;;;;;;101.00;16.58;;;;;;;;;;4983035;28;20046;-60
2023/03/23 01:22:06;;;;;;;103.45;18.70;;;;;;;;;;4987985;28;20383;-61
2023/03/23 01:24:32;;;;;;;103.22;16.08;;;;;;;;;;4991710;28;20057;-60
2023/03/23 01:27:06;;;;;;;100.45;16.17;;;;;;;;;;4989906;28;20111;-61
2023/03/23 01:29:35;;;;;;;106.25;16.80;;;;;;;;;;4988656;28;20139;-60
2023/03/23 01:32:07;;;;;;;104.47;15.95;;;;;;;;;;4988893;28;20082;-61
2023/03/23 01:34:34;;;;;;;118.13;17.65;;;;;;;;;;4991621;28;20050;-60
2023/03/23 01:37:00;;;;;;;99.80;16.67;;;;;;;;;;4987596;28;21108;-60
2023/03/23 01:39:34;;;;;;;104.05;16.25;;;;;;;;;;4988998;28;20065;-60
2023/03/23 01:42:00;;;;;;;110.18;18.25;;;;;;;;;;4990829;28;20758;-60
2023/03/23 01:44:33;;;;;;;114.93;16.20;;;;;;;;;;4988910;28;20097;-60
2023/03/23 01:46:59;;;;;;;89.90;14.07;;;;;;;;;;4990853;28;20066;-60
2023/03/23 01:49:28;;;;;;;124.15;17.60;;;;;;;;;;4987507;28;20054;-60
2023/03/23 01:52:02;;;;;;;94.28;15.07;;;;;;;;;;4993115;28;20054;-60
2023/03/23 01:54:29;;;;;;;109.13;16.60;;;;;;;;;;4989431;28;20143;-60
2023/03/23 01:57:07;;;;;;;101.72;16.02;;;;;;;;;;4987682;28;20184;-60
2023/03/23 01:59:34;;;;;;;110.05;15.55;;;;;;;;;;4984918;28;20051;-60
2023/03/23 02:02:01;;;;;;;78.90;14.68;;;;;;;;;;4986719;28;20050;-60
2023/03/23 02:04:35;;;;;;;80.88;13.27;;;;;;;;;;4986714;28;20130;-60
2023/03/23 02:07:01;;;;;;;83.50;15.68;;;;;;;;;;4992464;28;20073;-60
2023/03/23 02:09:34;;;;;;;78.72;13.55;;;;;;;;;;4988040;28;20529;-60
2023/03/23 02:12:01;;;;;;;93.13;16.35;;;;;;;;;;4986899;28;20057;-60
2023/03/23 02:14:40;;;;;;;95.80;15.73;;;;;;;;;;4987654;28;20124;-60
2023/03/23 02:17:10;;;;;;;95.55;16.38;;;;;;;;;;4989817;28;20046;-60
2023/03/23 02:19:45;;;;;;;99.95;17.25;;;;;;;;;;4989242;28;20061;-61
2023/03/23 02:22:31;;;;;;;92.45;16.88;;;;;;;;;;4987518;28;20054;-60
2023/03/23 02:25:09;;;;;;;105.28;16.58;;;;;;;;;;4987075;28;20054;-61
2023/03/23 02:27:42;;;;;;;108.10;18.08;;;;;;;;;;4973262;28;20054;-61
2023/03/23 02:30:11;;;;;;;116.93;18.05;;;;;;;;;;4989466;28;20042;-60
2023/03/23 02:32:46;;;;;;;85.45;15.88;;;;;;;;;;4985972;28;20094;-66
2023/03/23 02:35:12;;;;;;;;;;;;;;;;;;4953696;28;20051;-66
2023/03/23 02:37:48;;;;;;;107.32;16.98;;;;;;;;;;4971154;28;20398;-67
2023/03/23 02:40:16;;;;;;;91.82;13.82;;;;;;;;;;4986129;28;20050;-68
2023/03/23 02:42:50;;;;;;;81.03;14.63;;;;;;;;;;4987189;28;20050;-65
2023/03/23 02:45:18;;;;;;;78.90;15.27;;;;;;;;;;4987584;28;20133;-67
2023/03/23 02:47:52;;;;;;;87.22;13.70;;;;;;;;;;4972981;28;20446;-62
2023/03/23 02:50:20;;;;;;;95.47;14.55;;;;;;;;;;4990689;28;20050;-59
2023/03/23 02:52:54;;;;;;;96.72;16.77;;;;;;;;;;4985141;28;20054;-58
2023/03/23 02:55:24;;;;;;;82.88;13.98;;;;;;;;;;4987359;28;20043;-60
2023/03/23 02:57:50;;;;;;;93.32;13.80;;;;;;;;;;4984076;28;20538;-59
2023/03/23 03:00:24;;;;;;;100.28;14.48;;;;;;;;;;4987433;28;20050;-59
2023/03/23 03:02:53;;;;;;;76.15;13.82;;;;;;;;;;4986542;28;20421;-61
2023/03/23 03:05:29;;;;;;;77.22;13.07;;;;;;;;;;4984244;28;20046;-61
2023/03/23 03:07:55;;;;;;;99.07;13.55;;;;;;;;;;4987285;28;20082;-54
2023/03/23 03:10:25;;;;;;;88.72;13.68;;;;;;;;;;4986719;28;20062;-57
2023/03/23 03:13:02;;;;;;;79.88;13.13;;;;;;;;;;4988352;28;20133;-59
2023/03/23 03:15:32;;;;;;;93.57;13.80;;;;;;;;;;4987010;28;20054;-57
2023/03/23 03:18:14;;;;;;;63.92;13.30;;;;;;;;;;4970013;28;20132;-56
2023/03/23 03:20:50;;;;;;;74.53;11.65;;;;;;;;;;4981257;28;20086;-56
2023/03/23 03:23:24;;;;;;;72.25;11.63;;;;;;;;;;4974223;28;20054;-62
2023/03/23 03:25:51;;;;;;;66.15;11.05;;;;;;;;;;4985418;28;20053;-61
2023/03/23 03:28:24;;;;;;;71.07;12.15;;;;;;;;;;4967241;28;20046;-62
2023/03/23 03:30:56;;;;;;;80.88;13.68;;;;;;;;;;4989090;28;20592;-62
2023/03/23 03:33:30;;;;;;;67.00;12.70;;;;;;;;;;4984499;28;20050;-66
2023/03/23 03:35:58;;;;;;;83.47;13.40;;;;;;;;;;4987680;28;20053;-60
2023/03/23 03:38:24;;;;;;;;;;;;;;;;;;4985647;28;20049;-60
2023/03/23 03:40:57;;;;;;;84.57;13.60;;;;;;;;;;4984059;28;19925;-60
2023/03/23 03:43:23;;;;;;;67.05;12.13;;;;;;;;;;4986697;28;20085;-59
2023/03/23 03:45:55;;;;;;;79.38;12.73;;;;;;;;;;4988700;28;20066;-58
2023/03/23 03:48:22;;;;;;;63.80;11.20;;;;;;;;;;4986434;28;20050;-58
2023/03/23 03:50:48;;;;;;;80.60;12.68;;;;;;;;;;4983748;28;20066;-59
2023/03/23 03:53:23;;;;;;;73.93;10.90;;;;;;;;;;4976627;28;20061;-46
2023/03/23 03:55:50;;;;;;;86.93;14.38;;;;;;;;;;4979782;28;20069;-49
2023/03/23 03:58:24;;;;;;;63.17;12.02;;;;;;;;;;4975512;28;20111;-52
2023/03/23 04:00:56;;;;;;;71.90;12.52;;;;;;;;;;4988854;28;20073;-48
2023/03/23 04:03:22;;;;;;;81.70;12.93;;;;;;;;;;4981909;28;20090;-52
2023/03/23 04:05:55;;;;;;;80.43;10.93;;;;;;;;;;4963509;28;20509;-58
2023/03/23 04:08:22;;;;;;;85.25;11.07;;;;;;;;;;4987205;28;20057;-59
2023/03/23 04:10:56;;;;;;;61.50;12.32;;;;;;;;;;4986455;28;20125;-57
2023/03/23 04:13:22;;;;;;;78.03;13.35;;;;;;;;;;4987250;28;20660;-58
2023/03/23 04:15:49;;;;;;;62.17;11.60;;;;;;;;;;4977710;28;20062;-58
2023/03/23 04:18:22;;;;;;;64.65;10.18;;;;;;;;;;4969850;28;20661;-57
2023/03/23 04:20:49;;;;;;;69.30;11.40;;;;;;;;;;4970365;28;20149;-59
2023/03/23 04:23:22;;;;;;;75.93;12.15;;;;;;;;;;4967799;28;20060;-58
2023/03/23 04:25:49;;;;;;;80.47;12.83;;;;;;;;;;4969754;28;20050;-60
2023/03/23 04:28:23;;;;;;;77.65;13.40;;;;;;;;;;4969303;28;20134;-56
2023/03/23 04:30:56;;;;;;;76.30;12.82;;;;;;;;;;4970514;28;20081;-52
2023/03/23 04:33:24;;;;;;;57.30;9.60;;;;;;;;;;4966109;28;20054;-58
2023/03/23 04:36:00;;;;;;;74.00;11.90;;;;;;;;;;4971092;28;20047;-59
2023/03/23 04:38:27;;;;;;;67.10;10.32;;;;;;;;;;4969321;28;20094;-57
2023/03/23 04:40:53;;;;;;;72.82;11.50;;;;;;;;;;4969102;28;20361;-59
2023/03/23 04:43:26;;;;;;;63.72;10.52;;;;;;;;;;4976055;28;22128;-59
2023/03/23 04:45:56;;;;;;;79.97;11.52;;;;;;;;;;4973934;28;20062;-60
2023/03/23 04:48:32;;;;;;;69.45;12.65;;;;;;;;;;4971934;28;20051;-68
2023/03/23 04:51:00;;;;;;;74.78;10.95;;;;;;;;;;4954473;28;20426;-69
2023/03/23 04:53:26;;;;;;;;;;;;;;;;;;4947322;28;20511;-69
2023/03/23 04:56:01;;;;;;;60.85;9.88;;;;;;;;;;4970192;28;19936;-69
2023/03/23 04:58:27;;;;;;;68.05;11.15;;;;;;;;;;4975155;28;20055;-69
2023/03/23 05:01:01;;;;;;;64.95;11.00;;;;;;;;;;4965778;28;20047;-50
2023/03/23 05:03:28;;;;;;;61.08;11.73;;;;;;;;;;4972346;28;20057;-50
2023/03/23 05:05:54;;;;;;;69.65;11.90;;;;;;;;;;4969671;28;20089;-53
2023/03/23 05:08:27;;;;;;;57.75;11.30;;;;;;;;;;4973939;28;20050;-49
2023/03/23 05:10:54;;;;;;;51.72;11.35;;;;;;;;;;4969158;28;20063;-49
2023/03/23 05:13:29;;;;;;;58.20;11.30;;;;;;;;;;4956552;28;20054;-50
2023/03/23 05:16:02;;;;;;;60.17;11.00;;;;;;;;;;4975012;28;20085;-67
2023/03/23 05:18:43;;;;;;;69.90;12.60;;;;;;;;;;4965666;28;20065;-60
2023/03/23 05:21:09;;;;;;;61.10;10.77;;;;;;;;;;4974259;28;20051;-59
2023/03/23 05:23:35;;;;;;;52.05;12.27;;;;;;;;;;4968050;28;20051;-59
2023/03/23 05:26:09;;;;;;;68.47;12.32;;;;;;;;;;4963155;28;20058;-59
2023/03/23 05:28:36;;;;;;;58.10;10.93;;;;;;;;;;4964051;28;20062;-60
2023/03/23 05:31:02;;;;;;;55.97;11.57;;;;;;;;;;4964339;28;20093;-60
2023/03/23 05:33:34;;;;;;;56.83;11.63;;;;;;;;;;4951276;28;20382;-68
2023/03/23 05:36:02;;;;;;;51.38;10.40;;;;;;;;;;4953248;28;20066;-57
2023/03/23 05:38:36;;;;;;;66.75;11.55;;;;;;;;;;4950536;28;20695;-55
2023/03/23 05:41:02;;;;;;;;;;;;;;;;;;4937937;28;20063;-57
2023/03/23 05:43:28;;;;;;;50.90;11.57;;;;;;;;;;4966200;28;20301;-55
2023/03/23 05:46:01;;;;;;;48.45;11.57;;;;;;;;;;4970207;28;20062;-55
2023/03/23 05:48:27;;;;;;;54.92;11.60;;;;;;;;;;4966519;28;20395;-56
2023/03/23 05:51:00;;;;;;;56.88;10.82;;;;;;;;;;4972195;28;20054;-56
2023/03/23 05:53:26;;;;;;;52.10;10.35;;;;;;;;;;4974375;28;20108;-60
2023/03/23 05:55:52;;;;;;;43.35;10.05;;;;;;;;;;4973156;28;20465;-60
2023/03/23 05:58:24;;;;;;;53.15;11.32;;;;;;;;;;4977203;28;20520;-59
2023/03/23 06:00:50;;;;;;;53.65;10.93;;;;;;;;;;4965305;28;20097;-60
2023/03/23 06:03:24;;;;;;;59.20;10.70;;;;;;;;;;4966777;28;20050;-59
2023/03/23 06:05:57;;;;;;;56.65;11.38;;;;;;;;;;4973577;28;20481;-57
2023/03/23 06:08:23;;;;;;;56.33;11.63;;;;;;;;;;4969323;28;20467;-57
2023/03/23 06:10:56;;;;;;;46.78;9.18;;;;;;;;;;4971645;28;20469;-55
2023/03/23 06:13:23;;;;;;;51.17;11.07;;;;;;;;;;4975321;28;20463;-55
2023/03/23 06:15:49;;;;;;;50.63;10.88;;;;;;;;;;4970683;28;20400;-56
2023/03/23 06:18:33;;;;;;;47.03;11.02;;;;;;;;;;4969301;28;20137;-57
2023/03/23 06:20:59;;;;;;;48.80;10.85;;;;;;;;;;4970700;28;20138;-60
2023/03/23 06:23:33;;;;;;;59.63;12.10;;;;;;;;;;4968269;28;20422;-59
2023/03/23 06:26:05;;;;;;;42.93;11.50;;;;;;;;;;4969920;28;20078;-60
2023/03/23 06:28:31;;;;;;;45.38;10.30;;;;;;;;;;4970920;28;20061;-61
2023/03/23 06:31:06;;;;;;;50.63;9.65;;;;;;;;;;4973049;28;20129;-67
2023/03/23 06:33:36;;;;;;;52.05;10.25;;;;;;;;;;4960028;28;20047;-60
2023/03/23 06:36:11;;;;;;;52.35;10.27;;;;;;;;;;4958887;28;20051;-60
2023/03/23 06:38:38;;;;;;;56.42;10.57;;;;;;;;;;4964985;28;20066;-61
2023/03/23 06:41:11;;;;;;;49.17;10.40;;;;;;;;;;4959412;28;20070;-60
2023/03/23 06:43:39;;;;;;;42.17;10.73;;;;;;;;;;4965286;28;20050;-61
2023/03/23 06:46:05;;;;;;;45.80;9.10;;;;;;;;;;4962006;28;20373;-60
2023/03/23 06:48:45;;;;;;;41.05;10.02;;;;;;;;;;4965710;28;20062;-60
2023/03/23 06:51:11;;;;;;;41.58;9.30;;;;;;;;;;4955315;28;20752;-60
2023/03/23 06:53:45;;;;;;;46.38;10.38;;;;;;;;;;4968311;28;20667;-61
2023/03/23 06:56:12;;;;;;;39.08;10.57;;;;;;;;;;4968900;28;20065;-61
2023/03/23 06:58:38;;;;;;;;;;;;;;;;;;4964808;28;20085;-60
2023/03/23 07:01:11;;;;;;;41.20;9.32;;;;;;;;;;4951258;28;19922;-60
2023/03/23 07:03:37;;;;;;;40.55;9.70;;;;;;;;;;4959180;28;20057;-60
2023/03/23 07:06:10;;;;;;;36.60;9.30;;;;;;;;;;4969288;28;20102;-60
2023/03/23 07:08:36;;;;;;;35.47;9.98;;;;;;;;;;4964919;28;20065;-60
2023/03/23 07:11:03;;;;;;;40.60;9.75;;;;;;;;;;4952918;28;20495;-60
2023/03/23 07:13:36;;;;;;;29.67;9.48;;;;;;;;;;4956336;28;20058;-58
2023/03/23 07:16:10;;;;;;;30.77;9.32;;;;;;;;;;4962237;28;20054;-57
2023/03/23 07:18:42;;;;;;;48.40;9.88;;;;;;;;;;4968951;28;20105;-59
2023/03/23 07:21:09;;;;;;;37.15;8.48;;;;;;;;;;4970227;28;20092;-60
2023/03/23 07:23:36;;;;;;;38.70;8.95;;;;;;;;;;4954167;28;20522;-58
2023/03/23 07:26:09;;;;;;;42.13;9.50;;;;;;;;;;4968436;28;20055;-60
2023/03/23 07:28:36;;;;;;;37.93;8.67;;;;;;;;;;4972165;28;20078;-48
2023/03/23 07:31:09;;;;;;;33.75;8.50;;;;;;;;;;4969393;28;20063;-61
2023/03/23 07:33:35;;;;;;;31.63;10.00;;;;;;;;;;4971785;28;20518;-61
2023/03/23 07:36:02;;;;;;;31.65;8.63;;;;;;;;;;4966840;28;20054;-61
2023/03/23 07:38:36;;;;;;;41.92;9.50;;;;;;;;;;4953034;28;20142;-61
2023/03/23 07:41:03;;;;;;;40.47;9.68;;;;;;;;;;4953563;28;20066;-62
2023/03/23 07:43:36;;;;;;;38.10;9.15;;;;;;;;;;4974315;28;20066;-61
2023/03/23 07:46:02;;;;;;;33.25;8.80;;;;;;;;;;4966100;28;20054;-51
2023/03/23 07:48:28;;;;;;;31.35;9.50;;;;;;;;;;4970713;28;20051;-50
2023/03/23 07:51:01;;;;;;;41.17;8.45;;;;;;;;;;4965666;28;20057;-50
2023/03/23 07:53:27;;;;;;;40.08;8.07;;;;;;;;;;4965191;28;20086;-52
2023/03/23 07:56:00;;;;;;;24.23;8.95;;;;;;;;;;4964202;28;20053;-60
2023/03/23 07:58:33;;;;;;;30.83;9.32;;;;;;;;;;4970449;28;20054;-61
2023/03/23 08:00:59;;;;;;;30.08;8.40;;;;;;;;;;4969535;28;20053;-59
2023/03/23 08:03:32;;;;;;;27.23;8.07;;;;;;;;;;4966236;28;20423;-59
2023/03/23 08:05:59;;;;;;;31.38;7.82;;;;;;;;;;4965132;28;20051;-59
2023/03/23 08:08:32;;;;;;;32.95;8.45;;;;;;;;;;4972815;28;20105;-56
2023/03/23 08:10:59;;;;;;;24.50;7.10;;;;;;;;;;4974087;28;20145;-59
2023/03/23 08:13:25;;;;;;;27.55;7.40;;;;;;;;;;4971266;28;20043;-57
2023/03/23 08:16:11;;;;;;;26.38;6.70;;;;;;;;;;4975453;28;20057;-57
2023/03/23 08:18:45;;;;;;;21.40;7.22;;;;;;;;;;4991870;28;20084;-59
2023/03/23 08:21:19;;;;;;;30.10;6.93;;;;;;;;;;4990267;28;20058;-58
2023/03/23 08:23:52;;;;;;;25.17;6.97;;;;;;;;;;4986895;28;20066;-58
2023/03/23 08:26:18;;;;;;;27.33;6.25;;;;;;;;;;4990319;28;20506;-63
2023/03/23 08:28:44;;;;;;;27.75;7.03;;;;;;;;;;4995015;28;20065;-61
2023/03/23 08:31:17;;;;;;;31.35;7.15;;;;;;;;;;4991084;28;20046;-61
2023/03/23 08:33:43;;;;;;;25.00;6.45;;;;;;;;;;4989473;28;20061;-60
2023/03/23 08:36:16;;;;;;;21.15;6.55;;;;;;;;;;4989673;28;20050;-61
2023/03/23 08:38:43;;;;;;;18.35;6.68;;;;;;;;;;4992351;28;20050;-61
2023/03/23 08:41:10;;;;;;;22.70;6.03;;;;;;;;;;4989401;28;20537;-60
2023/03/23 08:43:43;;;;;;;20.83;5.90;;;;;;;;;;4992285;28;20054;-61
2023/03/23 08:46:11;;;;;;;18.80;6.22;;;;;;;;;;4992728;28;20511;-61
2023/03/23 08:48:45;;;;;;;22.25;6.88;;;;;;;;;;4973173;28;20494;-61
2023/03/23 08:51:11;;;;;;;19.33;5.88;;;;;;;;;;4973610;28;20084;-61
2023/03/23 08:53:37;;;;;;;24.30;6.87;;;;;;;;;;4990687;28;20058;-50
2023/03/23 08:56:12;;;;;;;28.45;6.28;;;;;;;;;;4994877;28;20085;-68
2023/03/23 08:58:38;;;;;;;;;;;;;;;;;;4994288;28;20596;-69
2023/03/23 09:01:12;;;;;;;23.45;6.80;;;;;;;;;;4989651;28;19929;-69
2023/03/23 09:03:39;;;;;;;21.58;6.20;;;;;;;;;;4990547;28;20512;-68
2023/03/23 09:06:06;;;;;;;17.45;6.93;;;;;;;;;;4991660;28;20084;-69
2023/03/23 09:08:39;;;;;;;25.73;6.25;;;;;;;;;;4977970;28;20058;-68
2023/03/23 09:11:07;;;;;;;21.60;6.43;;;;;;;;;;4995388;28;20046;-63
2023/03/23 09:13:40;;;;;;;18.40;7.03;;;;;;;;;;4970801;28;20042;-64
2023/03/23 09:16:20;;;;;;;21.93;6.47;;;;;;;;;;4988809;28;20770;-63
2023/03/23 09:18:56;;;;;;;16.08;6.57;;;;;;;;;;4991366;28;20062;-63
2023/03/23 09:21:22;;;;;;;21.80;7.13;;;;;;;;;;4989566;28;20144;-57
2023/03/23 09:23:48;;;;;;;25.00;7.00;;;;;;;;;;4989258;28;20068;-57
2023/03/23 09:26:21;;;;;;;23.92;7.00;;;;;;;;;;4989870;28;20050;-63
2023/03/23 09:28:47;;;;;;;18.77;6.70;;;;;;;;;;4990415;28;20053;-63
2023/03/23 09:31:20;;;;;;;22.58;6.00;;;;;;;;;;4987690;28;20060;-63
2023/03/23 09:33:55;;;;;;;19.58;5.63;;;;;;;;;;4987788;28;20054;-63
2023/03/23 09:36:30;;;;;;;16.33;5.63;;;;;;;;;;4992112;28;20065;-63
2023/03/23 09:38:56;;;;;;;15.15;5.40;;;;;;;;;;4988970;28;20058;-63
2023/03/23 09:41:33;;;;;;;19.95;5.60;;;;;;;;;;4995762;28;20058;-55
2023/03/23 09:44:22;;;;;;;13.02;6.07;;;;;;;;;;4988469;28;20053;-50
2023/03/23 09:47:14;;;;;;;15.60;5.63;;;;;;;;;;4991099;28;20054;-54
2023/03/23 09:49:58;;;;;;;13.27;4.75;;;;;;;;;;4992750;28;20054;-60
2023/03/23 09:52:37;;;;;;;14.52;5.00;;;;;;;;;;4989903;28;20429;-57
2023/03/23 09:55:04;;;;;;;9.93;5.40;;;;;;;;;;4989099;28;20073;-59
2023/03/23 09:57:41;;;;;;;12.48;5.80;;;;;;;;;;4991533;28;20061;-59
2023/03/23 10:00:14;;;;;;;13.77;5.55;;;;;;;;;;4985117;28;20133;-59
2023/03/23 10:03:02;;;;;;;11.13;5.45;;;;;;;;;;4991168;28;20476;-60
2023/03/23 10:05:35;;;;;;;14.50;6.32;;;;;;;;;;4990514;28;20078;-59
2023/03/23 10:08:13;;;;;;;10.77;5.00;;;;;;;;;;4992873;28;20113;-60
2023/03/23 10:10:45;;;;;;;17.77;5.68;;;;;;;;;;4986740;28;20054;-59
2023/03/23 10:13:38;;;;;;;13.45;6.43;;;;;;;;;;4987672;28;20047;-60
2023/03/23 10:16:30;;;;;;;14.45;6.65;;;;;;;;;;4976208;28;20054;-60
2023/03/23 10:19:03;;;;;;;10.95;6.63;;;;;;;;;;4968468;28;20058;-61
2023/03/23 10:21:31;;;;;;;10.63;5.80;;;;;;;;;;4972486;28;20625;-64
2023/03/23 10:23:59;;;;;;;17.77;6.15;;;;;;;;;;4964143;28;20090;-64
2023/03/23 10:26:33;;;;;;;10.13;5.93;;;;;;;;;;4968822;28;20050;-64
2023/03/23 10:29:02;;;;;;;13.55;6.10;;;;;;;;;;4972144;28;20043;-64
2023/03/23 10:31:37;;;;;;;11.15;5.13;;;;;;;;;;4974139;28;20232;-64
2023/03/23 10:34:08;;;;;;;12.98;5.25;;;;;;;;;;4973386;28;20078;-64
2023/03/23 10:36:51;;;;;;;17.10;4.78;;;;;;;;;;4974506;28;20141;-54
2023/03/23 10:39:20;;;;;;;12.18;6.07;;;;;;;;;;4969639;28;20050;-56
2023/03/23 10:41:53;;;;;;;9.82;5.43;;;;;;;;;;4974020;28;20047;-55
2023/03/23 10:44:21;;;;;;;11.82;5.70;;;;;;;;;;4976236;28;20062;-56
2023/03/23 10:46:59;;;;;;;15.77;5.85;;;;;;;;;;4970088;28;20058;-56
2023/03/23 10:49:28;;;;;;;9.38;5.35;;;;;;;;;;4970720;28;20182;-60
2023/03/23 10:52:13;;;;;;;10.23;5.90;;;;;;;;;;4970649;28;20061;-68
2023/03/23 10:54:47;;;;;;;11.43;4.70;;;;;;;;;;4969303;28;20054;-68
2023/03/23 10:57:28;;;;;;;11.85;5.80;;;;;;;;;;4971870;28;20065;-68
2023/03/23 11:00:21;;;;;;;15.50;6.05;;;;;;;;;;4969238;28;20047;-68
2023/03/23 11:03:05;;;;;;;11.57;6.43;;;;;;;;;;4967308;28;20058;-67
2023/03/23 11:05:39;;;;;;;10.03;5.27;;;;;;;;;;4973283;28;20059;-61
2023/03/23 11:08:13;;;;;;;8.35;5.13;;;;;;;;;;4970421;28;20298;-61
2023/03/23 11:10:40;;;;;;;;;;;;;;;;;;4969221;28;20051;-61
2023/03/23 11:13:11;;;;;;;8.05;5.03;;;;;;;;;;4968706;28;19965;-61
2023/03/23 11:15:58;;;;;;;7.65;4.32;;;;;;;;;;4967679;28;20136;-64
2023/03/23 11:18:42;;;;;;;5.93;3.97;;;;;;;;;;4972047;28;20057;-59
2023/03/23 11:21:16;;;;;;;8.18;4.32;;;;;;;;;;4974121;28;20050;-60
2023/03/23 11:23:42;;;;;;;;;;;;;;;;;;4966851;28;20309;-60
2023/03/23 11:26:35;;;;;;;8.27;4.00;;;;;;;;;;4972299;28;19921;-58
2023/03/23 11:29:04;;;;;;;9.65;4.47;;;;;;;;;;4987927;28;20042;-56
2023/03/23 11:31:39;;;;;;;9.30;5.20;;;;;;;;;;4984371;28;20059;-62
2023/03/23 11:34:17;;;;;;;10.15;5.80;;;;;;;;;;4986154;28;20517;-68
2023/03/23 11:36:50;;;;;;;9.70;5.65;;;;;;;;;;4985394;28;20133;-67
2023/03/23 11:39:27;;;;;;;13.48;6.38;;;;;;;;;;4969620;28;20160;-68
2023/03/23 11:42:02;;;;;;;12.55;6.60;;;;;;;;;;4985213;28;20062;-68
2023/03/23 11:44:33;;;;;;;12.23;7.15;;;;;;;;;;4984706;28;20116;-61
2023/03/23 11:47:02;;;;;;;15.23;7.30;;;;;;;;;;4983555;28;20139;-60
2023/03/23 11:49:42;;;;;;;14.40;6.70;;;;;;;;;;4988642;28;20084;-61
2023/03/23 11:52:21;;;;;;;9.30;6.53;;;;;;;;;;4991011;28;20061;-61
2023/03/23 11:55:02;;;;;;;12.75;7.60;;;;;;;;;;4990061;28;20514;-60
2023/03/23 11:57:30;;;;;;;16.15;7.80;;;;;;;;;;4992189;28;20054;-61
2023/03/23 12:00:12;;;;;;;13.55;7.60;;;;;;;;;;4990777;28;20051;-61
2023/03/23 12:02:42;;;;;;;15.82;8.25;;;;;;;;;;4994040;28;20054;-67
2023/03/23 12:05:18;;;;;;;12.80;7.85;;;;;;;;;;4994178;28;20062;-68
2023/03/23 12:08:03;;;;;;;14.25;7.43;;;;;;;;;;4970443;28;20136;-68
2023/03/23 12:10:51;;;;;;;12.50;7.10;;;;;;;;;;4989760;28;20069;-68
2023/03/23 12:13:17;;;;;;;14.15;7.40;;;;;;;;;;4976535;28;20141;-63
2023/03/23 12:16:02;;;;;;;12.52;6.63;;;;;;;;;;4987428;28;20058;-56
2023/03/23 12:18:38;;;;;;;10.45;6.40;;;;;;;;;;4992000;28;20066;-54
2023/03/23 12:21:36;;;;;;;14.00;6.00;;;;;;;;;;4975012;28;20932;-51
2023/03/23 12:24:15;;;;;;;12.48;6.90;;;;;;;;;;4989833;28;20052;-54
2023/03/23 12:26:53;;;;;;;17.55;7.72;;;;;;;;;;4988333;28;20058;-54
2023/03/23 12:29:23;;;;;;;16.05;6.95;;;;;;;;;;4994653;28;20065;-55
2023/03/23 12:32:06;;;;;;;10.73;6.47;;;;;;;;;;4989624;28;20093;-53
2023/03/23 12:34:44;;;;;;;13.20;6.10;;;;;;;;;;4991631;28;20050;-57
2023/03/23 12:37:26;;;;;;;10.48;5.63;;;;;;;;;;4992056;28;20065;-49
2023/03/23 12:40:08;;;;;;;13.00;6.00;;;;;;;;;;4990620;28;20141;-52
2023/03/23 12:42:48;;;;;;;8.10;4.47;;;;;;;;;;4992815;28;20111;-63
2023/03/23 12:45:32;;;;;;;11.30;4.07;;;;;;;;;;4989638;28;21533;-62
2023/03/23 12:48:09;;;;;;;7.40;4.00;;;;;;;;;;4993548;28;20065;-62
2023/03/23 12:51:01;;;;;;;8.77;3.28;;;;;;;;;;4990878;28;20848;-62
2023/03/23 12:53:37;;;;;;;10.98;3.50;;;;;;;;;;4989060;28;20120;-62
2023/03/23 12:56:21;;;;;;;7.88;3.30;;;;;;;;;;4991071;28;20460;-62
2023/03/23 12:58:59;;;;;;;15.85;3.42;;;;;;;;;;4988581;28;20946;-60
2023/03/23 13:01:34;;;;;;;12.88;3.17;;;;;;;;;;4989581;28;20047;-59
2023/03/23 13:04:18;;;;;;;11.63;2.80;;;;;;;;;;4988621;28;20054;-60
2023/03/23 13:06:46;;;;;;;5.65;2.42;;;;;;;;;;4989406;28;20062;-61
2023/03/23 13:09:19;;;;;;;11.23;2.85;;;;;;;;;;4988654;28;20766;-59
2023/03/23 13:11:46;;;;;;;7.65;3.05;;;;;;;;;;4991001;28;20136;-63
2023/03/23 13:14:12;;;;;;;;;;;;;;;;;;4990927;28;20600;-63
2023/03/23 13:16:49;;;;;;;4.93;2.08;;;;;;;;;;4993317;28;19928;-63
2023/03/23 13:19:53;;;;;;;10.77;2.25;;;;;;;;;;4993192;28;20127;-63
2023/03/23 13:22:27;;;;;;;5.97;2.15;;;;;;;;;;4989492;28;20062;-63
2023/03/23 13:25:03;;;;;;;7.15;2.63;;;;;;;;;;4988579;28;20133;-62
2023/03/23 13:27:30;;;;;;;6.45;2.05;;;;;;;;;;4991994;28;20068;-59
2023/03/23 13:29:59;;;;;;;8.68;2.83;;;;;;;;;;4995073;28;20046;-60
2023/03/23 13:32:34;;;;;;;7.85;2.17;;;;;;;;;;4990205;28;20418;-61
2023/03/23 13:35:06;;;;;;;4.85;2.15;;;;;;;;;;4993860;28;20046;-58
2023/03/23 13:37:46;;;;;;;8.57;2.00;;;;;;;;;;4992148;28;20077;-57
2023/03/23 13:40:31;;;;;;;4.35;2.20;;;;;;;;;;4990141;28;20053;-59
2023/03/23 13:43:05;;;;;;;5.55;1.98;;;;;;;;;;4992328;28;20043;-60
2023/03/23 13:45:32;;;;;;;5.72;1.70;;;;;;;;;;4989714;28;20058;-60
2023/03/23 13:48:17;;;;;;;7.25;1.73;;;;;;;;;;4994993;28;20050;-60
2023/03/23 13:50:52;;;;;;;2.70;1.17;;;;;;;;;;4991955;28;20062;-61
2023/03/23 13:53:32;;;;;;;7.55;1.55;;;;;;;;;;4969551;28;20144;-62
2023/03/23 13:56:16;;;;;;;4.25;1.30;;;;;;;;;;4987089;28;20062;-72
2023/03/23 13:58:56;;;;;;;2.70;0.93;;;;;;;;;;4983360;28;20064;-72
2023/03/23 14:01:41;;;;;;;4.68;1.10;;;;;;;;;;4991868;28;20599;-72
2023/03/23 14:04:17;;;;;;;3.72;1.10;;;;;;;;;;4987286;28;20058;-72
2023/03/23 14:06:45;;;;;;;2.00;0.82;;;;;;;;;;4987029;28;20057;-71
2023/03/23 14:09:17;;;;;;;1.70;0.88;;;;;;;;;;4987065;28;20054;-71
2023/03/23 14:12:07;;;;;;;5.13;1.20;;;;;;;;;;4991526;28;20054;-71
2023/03/23 14:14:35;;;;;;;5.25;1.30;;;;;;;;;;4987762;28;20065;-71
2023/03/23 14:17:31;;;;;;;5.22;1.20;;;;;;;;;;4985920;28;20081;-71
2023/03/23 14:19:59;;;;;;;4.72;1.05;;;;;;;;;;4990271;28;20103;-71
2023/03/23 14:22:36;;;;;;;4.38;1.25;;;;;;;;;;4994000;28;20046;-70
2023/03/23 14:25:13;;;;;;;11.20;2.20;;;;;;;;;;4975218;28;20059;-72
2023/03/23 14:27:46;;;;;;;8.68;2.17;;;;;;;;;;4990402;28;20046;-71
2023/03/23 14:30:16;;;;;;;14.23;2.58;;;;;;;;;;4972993;28;20140;-70
2023/03/23 14:32:43;;;;;;;19.27;3.58;;;;;;;;;;4992120;28;20152;-71
2023/03/23 14:35:22;;;;;;;24.23;3.75;;;;;;;;;;4972196;28;20419;-71
2023/03/23 14:37:48;;;;;;;34.67;5.35;;;;;;;;;;4986486;28;20058;-70
2023/03/23 14:40:21;;;;;;;30.98;4.47;;;;;;;;;;4986140;28;20061;-70
2023/03/23 14:42:47;;;;;;;40.28;4.50;;;;;;;;;;4987574;28;20054;-71
2023/03/23 14:45:16;;;;;;;33.93;4.70;;;;;;;;;;4989703;28;20129;-70
2023/03/23 14:47:57;;;;;;;48.22;5.57;;;;;;;;;;4988210;28;20050;-70
2023/03/23 14:50:29;;;;;;;35.70;6.43;;;;;;;;;;4989354;28;20514;-70
2023/03/23 14:53:10;;;;;;;50.92;5.97;;;;;;;;;;4985801;28;20053;-71
2023/03/23 14:55:37;;;;;;;45.03;5.72;;;;;;;;;;4989232;28;20062;-70
2023/03/23 14:58:13;;;;;;;49.22;5.88;;;;;;;;;;4984914;28;20593;-69